Allure of the Seas — C6XS8 — position and weather

sailwx.info

Track history (hours):
 
Tides and Currents Weather Stations Pressure Air Temp Water Temp Dewpoint Dewpoint Depression Visibility Wind Speed Wind Dir Waves Ship Positions

Allure of the Seas

Last reported at 2019-Jan-23 17:25 UTC. Time now 2019-Jan-23 17:48 UTC.
Position N 20°29' W 086°59'.

Length 362 m; draft 9.3 m.

Type: Passenger vessel. MMSI: 311020700.

Date/timePositionNaut miles runAvg speedWind from/ knotsBaromVisibWave heightAir tempDewpointWater temp
2019-Jan-23 17:25N 20°29' W 086°59'0 0.0
2019-Jan-23 16:55N 20°29' W 086°59'0 0.0
2019-Jan-23 16:28N 20°29' W 086°59'0 0.0
2019-Jan-23 15:58N 20°29' W 086°59'0 0.0
2019-Jan-23 15:28N 20°29' W 086°59'0 0.0
2019-Jan-23 14:58N 20°29' W 086°59'0 0.0
2019-Jan-23 14:28N 20°29' W 086°59'0 0.0
2019-Jan-23 13:58N 20°29' W 086°59'0 0.0
2019-Jan-23 13:28N 20°29' W 086°59'0 0.0
2019-Jan-23 13:00N 20°29' W 086°59'1 1.7
2019-Jan-23 12:30N 20°30' W 086°59'4 7.8
2019-Jan-23 12:00N 20°34' W 086°58'612.5
2019-Jan-23 11:30N 20°39' W 086°54'9316.8
2019-Jan-23 06:00N 21°36' W 085°36'11018.4 110 / 371017.410.8 25.818.827.1
2019-Jan-23 00:00N 22°54' W 084°12'12320.5 130 / 221020.110.8 25.414.326.6
2019-Jan-22 18:00N 23°36' W 082°06'11218.7 070 / 271024.010.8 25.016.526.0
2019-Jan-22 12:00N 24°18' W 080°12'10517.6 090 / 251025.010.8 22.514.226.3
2019-Jan-22 06:00N 25°54' W 079°24'10517.6 050 / 301026.610.8 21.112.826.2
2019-Jan-22 00:00N 25°30' W 077°30'26 2.2 030 / 221024.110.8 21.311.125.1
2019-Jan-21 12:00N 25°06' W 077°18'13511.4 360 / 151021.010.8 19.710.224.6
2019-Jan-21 00:07N 25°58' W 079°36'215.3
2019-Jan-21 00:00N 25°57' W 079°38'4248.2
2019-Jan-21 00:00N 25°54' W 079°36'917.8 290 / 271017.110.8 20.010.526.0
2019-Jan-20 23:30N 25°54' W 079°46'815.6
2019-Jan-20 23:00N 25°51' W 079°54'815.3
2019-Jan-20 22:30N 25°48' W 080°01'611.8
2019-Jan-20 22:00N 25°46' W 080°08'2 3.6
2019-Jan-20 21:30N 25°46' W 080°09'0 0.0
2019-Jan-20 20:58N 25°46' W 080°09'0 0.0
2019-Jan-20 20:28N 25°46' W 080°09'0 0.0
2019-Jan-20 19:58N 25°46' W 080°09'0 0.0
2019-Jan-20 19:28N 25°46' W 080°09'0 0.0
2019-Jan-20 18:58N 25°46' W 080°09'0 0.0
2019-Jan-20 18:28N 25°46' W 080°09'0 0.0
2019-Jan-20 17:58N 25°46' W 080°09'0 0.0
2019-Jan-20 17:28N 25°46' W 080°09'0 0.0
2019-Jan-20 16:58N 25°46' W 080°09'0 0.0
2019-Jan-20 16:28N 25°46' W 080°09'0 0.0
2019-Jan-20 15:58N 25°46' W 080°09'0 0.0
2019-Jan-20 15:25N 25°46' W 080°09'0 0.0
2019-Jan-20 14:58N 25°46' W 080°09'0 0.0
2019-Jan-20 14:28N 25°46' W 080°09'0 0.0
2019-Jan-20 13:52N 25°46' W 080°09'0 0.0
2019-Jan-20 13:22N 25°46' W 080°09'0 0.0
2019-Jan-20 12:52N 25°46' W 080°09'0 0.0
2019-Jan-20 12:28N 25°46' W 080°09'0 0.0
2019-Jan-20 11:55N 25°46' W 080°09'0 0.0
2019-Jan-20 11:28N 25°46' W 080°09'0 0.0
2019-Jan-20 10:58N 25°46' W 080°09'0 0.0
2019-Jan-20 10:28N 25°46' W 080°09'0 0.0
2019-Jan-20 09:58N 25°46' W 080°09'0 0.0
2019-Jan-20 09:28N 25°46' W 080°09'0 0.0
2019-Jan-20 08:55N 25°46' W 080°09'0 0.0
2019-Jan-20 08:30N 25°46' W 080°09'1 3.0
2019-Jan-20 08:01N 25°47' W 080°11'2 4.1
2019-Jan-20 07:30N 25°46' W 080°09'510.5
2019-Jan-20 07:01N 25°47' W 080°03'611.9
2019-Jan-20 06:30N 25°44' W 079°57'917.6
2019-Jan-20 06:00N 25°40' W 079°48'917.6
2019-Jan-20 05:30N 25°35' W 079°40'19617.1
2019-Jan-19 18:00N 22°36' W 078°12'11719.4 100 / 121017.410.8 25.318.626.6
2019-Jan-19 12:00N 21°36' W 076°24'28111.7 070 / 151018.010.8 25.018.327.0
2019-Jan-18 12:00N 20°00' W 071°42'25020.9 100 / 131018.010.8 24.018.527.0
2019-Jan-18 00:00N 19°00' W 067°24'246 9.8 110 / 161019.2 5.4 25.019.026.7
2019-Jan-16 22:50N 18°00' W 063°13'913.2
2019-Jan-16 22:12N 18°00' W 063°04'1 4.6
2019-Jan-16 21:59N 18°01' W 063°03'0 0.0
2019-Jan-16 21:18N 18°01' W 063°03'0 0.0
2019-Jan-16 20:21N 18°01' W 063°03'0 0.0
2019-Jan-16 19:12N 18°01' W 063°03'0 0.0
2019-Jan-16 18:42N 18°01' W 063°03'0 0.0
2019-Jan-16 18:24N 18°01' W 063°03'0 0.0
2019-Jan-16 17:57N 18°01' W 063°03'0 0.0
2019-Jan-16 17:27N 18°01' W 063°03'0 0.0
2019-Jan-16 16:57N 18°01' W 063°03'0 0.0
2019-Jan-16 16:30N 18°01' W 063°03'0 0.0
2019-Jan-16 15:42N 18°01' W 063°03'0 0.0
2019-Jan-16 15:00N 18°01' W 063°03'0 0.0
2019-Jan-16 14:30N 18°01' W 063°03'0 0.0
2019-Jan-16 13:57N 18°01' W 063°03'0 0.0
2019-Jan-16 13:27N 18°01' W 063°03'0 0.0
2019-Jan-16 12:48N 18°01' W 063°03'0 0.9
2019-Jan-16 12:26N 18°00' W 063°03'4 8.2
2019-Jan-16 11:59N 18°00' W 063°07'815.2
2019-Jan-16 11:30N 18°03' W 063°14'1017.1
2019-Jan-16 10:56N 18°09' W 063°22'917.5
2019-Jan-16 10:26N 18°15' W 063°30'7316.4
2019-Jan-16 06:00N 19°06' W 064°24'9716.2 090 / 171017.410.8 25.016.826.6
2019-Jan-16 00:00N 19°54' W 065°54'9716.2 060 / 151019.010.8 25.617.326.7
2019-Jan-15 18:00N 20°42' W 067°24'10517.4 120 / 51018.010.8 28.518.126.7
2019-Jan-15 12:00N 21°36' W 069°00'10918.1 110 / 121018.010.8 25.018.826.0
2019-Jan-15 06:00N 22°30' W 070°42'20817.4 110 / 151017.5 5.4 24.520.526.5
2019-Jan-14 18:00N 24°12' W 074°00'11018.4 290 / 41019.010.8 28.418.326.4
2019-Jan-14 12:00N 25°12' W 075°42'12120.2 220 / 51020.010.8 23.023.025.0
2019-Jan-14 06:00N 25°54' W 077°48'10118.5 180 / 151020.510.8 24.017.825.5
2019-Jan-14 00:30N 25°56' W 079°41'918.7
2019-Jan-14 00:00N 25°52' W 079°50'5516.5
2019-Jan-14 00:00N 25°48' W 079°54'5 9.9 190 / 131021.0 5.4 25.118.125.9
2019-Jan-13 23:30N 25°49' W 079°59'713.5
2019-Jan-13 23:00N 25°46' W 080°06'3 6.5
2019-Jan-13 22:30N 25°46' W 080°09'0 0.0
2019-Jan-13 21:59N 25°46' W 080°09'0 0.0
2019-Jan-13 21:29N 25°46' W 080°09'0 0.0
2019-Jan-13 20:59N 25°46' W 080°09'0 0.0
2019-Jan-13 20:29N 25°46' W 080°09'0 0.0
2019-Jan-13 19:59N 25°46' W 080°09'0 0.0
2019-Jan-13 19:29N 25°46' W 080°09'0 0.0
2019-Jan-13 18:56N 25°46' W 080°09'0 0.0
2019-Jan-13 18:29N 25°46' W 080°09'0 0.0
2019-Jan-13 17:59N 25°46' W 080°09'0 0.0
2019-Jan-13 17:26N 25°46' W 080°09'  
Track history (hours):
 
Tides and Currents Weather Stations Pressure Air Temp Water Temp Dewpoint Dewpoint Depression Visibility Wind Speed Wind Dir Waves Ship Positions

Allure of the Seas

Last reported at 2019-Jan-23 17:25 UTC. Time now 2019-Jan-23 17:48 UTC.
Position N 20°29' W 086°59'.

Length 362 m; draft 9.3 m.

Type: Passenger vessel. MMSI: 311020700.

Date/timePositionNaut miles runAvg speedWind from/ knotsBaromVisibWave heightAir tempDewpointWater temp
2019-Jan-23 17:25N 20°29' W 086°59'0 0.0
2019-Jan-23 16:55N 20°29' W 086°59'0 0.0
2019-Jan-23 16:28N 20°29' W 086°59'0 0.0
2019-Jan-23 15:58N 20°29' W 086°59'0 0.0
2019-Jan-23 15:28N 20°29' W 086°59'0 0.0
2019-Jan-23 14:58N 20°29' W 086°59'0 0.0
2019-Jan-23 14:28N 20°29' W 086°59'0 0.0
2019-Jan-23 13:58N 20°29' W 086°59'0 0.0
2019-Jan-23 13:28N 20°29' W 086°59'0 0.0
2019-Jan-23 13:00N 20°29' W 086°59'1 1.7
2019-Jan-23 12:30N 20°30' W 086°59'4 7.8
2019-Jan-23 12:00N 20°34' W 086°58'612.5
2019-Jan-23 11:30N 20°39' W 086°54'9316.8
2019-Jan-23 06:00N 21°36' W 085°36'11018.4 110 / 371017.410.8 25.818.827.1
2019-Jan-23 00:00N 22°54' W 084°12'12320.5 130 / 221020.110.8 25.414.326.6
2019-Jan-22 18:00N 23°36' W 082°06'11218.7 070 / 271024.010.8 25.016.526.0
2019-Jan-22 12:00N 24°18' W 080°12'10517.6 090 / 251025.010.8 22.514.226.3
2019-Jan-22 06:00N 25°54' W 079°24'10517.6 050 / 301026.610.8 21.112.826.2
2019-Jan-22 00:00N 25°30' W 077°30'26 2.2 030 / 221024.110.8 21.311.125.1
2019-Jan-21 12:00N 25°06' W 077°18'13511.4 360 / 151021.010.8 19.710.224.6
2019-Jan-21 00:07N 25°58' W 079°36'215.3
2019-Jan-21 00:00N 25°57' W 079°38'4248.2
2019-Jan-21 00:00N 25°54' W 079°36'917.8 290 / 271017.110.8 20.010.526.0
2019-Jan-20 23:30N 25°54' W 079°46'815.6
2019-Jan-20 23:00N 25°51' W 079°54'815.3
2019-Jan-20 22:30N 25°48' W 080°01'611.8
2019-Jan-20 22:00N 25°46' W 080°08'2 3.6
2019-Jan-20 21:30N 25°46' W 080°09'0 0.0
2019-Jan-20 20:58N 25°46' W 080°09'0 0.0
2019-Jan-20 20:28N 25°46' W 080°09'0 0.0
2019-Jan-20 19:58N 25°46' W 080°09'0 0.0
2019-Jan-20 19:28N 25°46' W 080°09'0 0.0
2019-Jan-20 18:58N 25°46' W 080°09'0 0.0
2019-Jan-20 18:28N 25°46' W 080°09'0 0.0
2019-Jan-20 17:58N 25°46' W 080°09'0 0.0
2019-Jan-20 17:28N 25°46' W 080°09'0 0.0
2019-Jan-20 16:58N 25°46' W 080°09'0 0.0
2019-Jan-20 16:28N 25°46' W 080°09'0 0.0
2019-Jan-20 15:58N 25°46' W 080°09'0 0.0
2019-Jan-20 15:25N 25°46' W 080°09'0 0.0
2019-Jan-20 14:58N 25°46' W 080°09'0 0.0
2019-Jan-20 14:28N 25°46' W 080°09'0 0.0
2019-Jan-20 13:52N 25°46' W 080°09'0 0.0
2019-Jan-20 13:22N 25°46' W 080°09'0 0.0
2019-Jan-20 12:52N 25°46' W 080°09'0 0.0
2019-Jan-20 12:28N 25°46' W 080°09'0 0.0
2019-Jan-20 11:55N 25°46' W 080°09'0 0.0
2019-Jan-20 11:28N 25°46' W 080°09'0 0.0
2019-Jan-20 10:58N 25°46' W 080°09'0 0.0
2019-Jan-20 10:28N 25°46' W 080°09'0 0.0
2019-Jan-20 09:58N 25°46' W 080°09'0 0.0
2019-Jan-20 09:28N 25°46' W 080°09'0 0.0
2019-Jan-20 08:55N 25°46' W 080°09'0 0.0
2019-Jan-20 08:30N 25°46' W 080°09'1 3.0
2019-Jan-20 08:01N 25°47' W 080°11'2 4.1
2019-Jan-20 07:30N 25°46' W 080°09'510.5
2019-Jan-20 07:01N 25°47' W 080°03'611.9
2019-Jan-20 06:30N 25°44' W 079°57'917.6
2019-Jan-20 06:00N 25°40' W 079°48'917.6
2019-Jan-20 05:30N 25°35' W 079°40'19617.1
2019-Jan-19 18:00N 22°36' W 078°12'11719.4 100 / 121017.410.8 25.318.626.6
2019-Jan-19 12:00N 21°36' W 076°24'28111.7 070 / 151018.010.8 25.018.327.0
2019-Jan-18 12:00N 20°00' W 071°42'25020.9 100 / 131018.010.8 24.018.527.0
2019-Jan-18 00:00N 19°00' W 067°24'246 9.8 110 / 161019.2 5.4 25.019.026.7
2019-Jan-16 22:50N 18°00' W 063°13'913.2
2019-Jan-16 22:12N 18°00' W 063°04'1 4.6
2019-Jan-16 21:59N 18°01' W 063°03'0 0.0
2019-Jan-16 21:18N 18°01' W 063°03'0 0.0
2019-Jan-16 20:21N 18°01' W 063°03'0 0.0
2019-Jan-16 19:12N 18°01' W 063°03'0 0.0
2019-Jan-16 18:42N 18°01' W 063°03'0 0.0
2019-Jan-16 18:24N 18°01' W 063°03'0 0.0
2019-Jan-16 17:57N 18°01' W 063°03'0 0.0
2019-Jan-16 17:27N 18°01' W 063°03'0 0.0
2019-Jan-16 16:57N 18°01' W 063°03'0 0.0
2019-Jan-16 16:30N 18°01' W 063°03'0 0.0
2019-Jan-16 15:42N 18°01' W 063°03'0 0.0
2019-Jan-16 15:00N 18°01' W 063°03'0 0.0
2019-Jan-16 14:30N 18°01' W 063°03'0 0.0
2019-Jan-16 13:57N 18°01' W 063°03'0 0.0
2019-Jan-16 13:27N 18°01' W 063°03'0 0.0
2019-Jan-16 12:48N 18°01' W 063°03'0 0.9
2019-Jan-16 12:26N 18°00' W 063°03'4 8.2
2019-Jan-16 11:59N 18°00' W 063°07'815.2
2019-Jan-16 11:30N 18°03' W 063°14'1017.1
2019-Jan-16 10:56N 18°09' W 063°22'917.5
2019-Jan-16 10:26N 18°15' W 063°30'7316.4
2019-Jan-16 06:00N 19°06' W 064°24'9716.2 090 / 171017.410.8 25.016.826.6
2019-Jan-16 00:00N 19°54' W 065°54'9716.2 060 / 151019.010.8 25.617.326.7
2019-Jan-15 18:00N 20°42' W 067°24'10517.4 120 / 51018.010.8 28.518.126.7
2019-Jan-15 12:00N 21°36' W 069°00'10918.1 110 / 121018.010.8 25.018.826.0
2019-Jan-15 06:00N 22°30' W 070°42'20817.4 110 / 151017.5 5.4 24.520.526.5
2019-Jan-14 18:00N 24°12' W 074°00'11018.4 290 / 41019.010.8 28.418.326.4
2019-Jan-14 12:00N 25°12' W 075°42'12120.2 220 / 51020.010.8 23.023.025.0
2019-Jan-14 06:00N 25°54' W 077°48'10118.5 180 / 151020.510.8 24.017.825.5
2019-Jan-14 00:30N 25°56' W 079°41'918.7
2019-Jan-14 00:00N 25°52' W 079°50'5516.5
2019-Jan-14 00:00N 25°48' W 079°54'5 9.9 190 / 131021.0 5.4 25.118.125.9
2019-Jan-13 23:30N 25°49' W 079°59'713.5
2019-Jan-13 23:00N 25°46' W 080°06'3 6.5
2019-Jan-13 22:30N 25°46' W 080°09'0 0.0
2019-Jan-13 21:59N 25°46' W 080°09'0 0.0
2019-Jan-13 21:29N 25°46' W 080°09'0 0.0
2019-Jan-13 20:59N 25°46' W 080°09'0 0.0
2019-Jan-13 20:29N 25°46' W 080°09'0 0.0
2019-Jan-13 19:59N 25°46' W 080°09'0 0.0
2019-Jan-13 19:29N 25°46' W 080°09'0 0.0
2019-Jan-13 18:56N 25°46' W 080°09'0 0.0
2019-Jan-13 18:29N 25°46' W 080°09'0 0.0
2019-Jan-13 17:59N 25°46' W 080°09'0 0.0
2019-Jan-13 17:26N 25°46' W 080°09'  

Dump ship's entire track history